sensor_id;sensor_type;location;lat;lon;timestamp;temperature;humidity
68051;DHT22;54839;51.364;7.246;2023-08-07T00:02:25;11.90;99.90
68051;DHT22;54839;51.364;7.246;2023-08-07T00:04:51;12.00;99.90
68051;DHT22;54839;51.364;7.246;2023-08-07T00:07:16;12.00;99.90
68051;DHT22;54839;51.364;7.246;2023-08-07T00:09:43;11.90;99.90
68051;DHT22;54839;51.364;7.246;2023-08-07T00:12:09;11.90;99.90
68051;DHT22;54839;51.364;7.246;2023-08-07T00:14:34;12.00;99.90
68051;DHT22;54839;51.364;7.246;2023-08-07T00:17:00;11.90;99.90
68051;DHT22;54839;51.364;7.246;2023-08-07T00:19:26;12.00;99.90
68051;DHT22;54839;51.364;7.246;2023-08-07T00:21:51;12.00;99.90
68051;DHT22;54839;51.364;7.246;2023-08-07T00:24:17;12.00;99.90
68051;DHT22;54839;51.364;7.246;2023-08-07T00:26:42;12.00;99.90
68051;DHT22;54839;51.364;7.246;2023-08-07T00:29:08;11.90;99.90
68051;DHT22;54839;51.364;7.246;2023-08-07T00:31:33;12.00;99.90
68051;DHT22;54839;51.364;7.246;2023-08-07T00:33:59;12.00;99.90
68051;DHT22;54839;51.364;7.246;2023-08-07T00:36:25;12.00;99.90
68051;DHT22;54839;51.364;7.246;2023-08-07T00:38:53;11.90;99.90
68051;DHT22;54839;51.364;7.246;2023-08-07T00:41:20;12.00;99.90
68051;DHT22;54839;51.364;7.246;2023-08-07T00:43:45;12.00;99.90
68051;DHT22;54839;51.364;7.246;2023-08-07T00:46:11;12.10;99.90
68051;DHT22;54839;51.364;7.246;2023-08-07T00:48:37;12.00;99.90
68051;DHT22;54839;51.364;7.246;2023-08-07T00:51:02;12.00;99.90
68051;DHT22;54839;51.364;7.246;2023-08-07T00:53:29;12.10;99.90
68051;DHT22;54839;51.364;7.246;2023-08-07T00:55:55;12.10;99.90
68051;DHT22;54839;51.364;7.246;2023-08-07T00:58:23;12.00;99.90
68051;DHT22;54839;51.364;7.246;2023-08-07T01:00:48;12.00;99.90
68051;DHT22;54839;51.364;7.246;2023-08-07T01:03:14;12.00;99.90
68051;DHT22;54839;51.364;7.246;2023-08-07T01:05:40;12.00;99.90
68051;DHT22;54839;51.364;7.246;2023-08-07T01:08:06;11.90;99.90
68051;DHT22;54839;51.364;7.246;2023-08-07T01:13:29;11.90;99.90
68051;DHT22;54839;51.364;7.246;2023-08-07T01:16:01;12.00;99.90
68051;DHT22;54839;51.364;7.246;2023-08-07T01:18:29;12.00;99.90
68051;DHT22;54839;51.364;7.246;2023-08-07T01:20:56;12.00;99.90
68051;DHT22;54839;51.364;7.246;2023-08-07T01:23:21;11.90;99.90
68051;DHT22;54839;51.364;7.246;2023-08-07T01:25:47;11.90;99.90
68051;DHT22;54839;51.364;7.246;2023-08-07T01:28:26;11.90;99.90
68051;DHT22;54839;51.364;7.246;2023-08-07T01:30:57;11.80;99.90
68051;DHT22;54839;51.364;7.246;2023-08-07T01:33:32;11.90;99.90
68051;DHT22;54839;51.364;7.246;2023-08-07T01:36:03;11.90;99.90
68051;DHT22;54839;51.364;7.246;2023-08-07T01:38:30;11.80;99.90
68051;DHT22;54839;51.364;7.246;2023-08-07T01:40:57;11.90;99.90
68051;DHT22;54839;51.364;7.246;2023-08-07T01:43:23;11.90;99.90
68051;DHT22;54839;51.364;7.246;2023-08-07T01:45:49;11.90;99.90
68051;DHT22;54839;51.364;7.246;2023-08-07T01:48:14;11.90;99.90
68051;DHT22;54839;51.364;7.246;2023-08-07T01:50:40;11.90;99.90
68051;DHT22;54839;51.364;7.246;2023-08-07T01:53:06;11.80;99.90
68051;DHT22;54839;51.364;7.246;2023-08-07T01:55:31;11.90;99.90
68051;DHT22;54839;51.364;7.246;2023-08-07T01:57:57;11.80;99.90
68051;DHT22;54839;51.364;7.246;2023-08-07T02:00:23;11.80;99.90
68051;DHT22;54839;51.364;7.246;2023-08-07T02:02:48;11.80;99.90
68051;DHT22;54839;51.364;7.246;2023-08-07T02:05:14;11.80;99.90
68051;DHT22;54839;51.364;7.246;2023-08-07T02:07:41;11.80;99.90
68051;DHT22;54839;51.364;7.246;2023-08-07T02:10:07;11.90;99.90
68051;DHT22;54839;51.364;7.246;2023-08-07T02:12:32;11.90;99.90
68051;DHT22;54839;51.364;7.246;2023-08-07T02:14:59;11.70;99.90
68051;DHT22;54839;51.364;7.246;2023-08-07T02:17:27;11.80;99.90
68051;DHT22;54839;51.364;7.246;2023-08-07T02:19:52;11.80;99.90
68051;DHT22;54839;51.364;7.246;2023-08-07T02:22:18;11.80;99.90
68051;DHT22;54839;51.364;7.246;2023-08-07T02:24:44;11.80;99.90
68051;DHT22;54839;51.364;7.246;2023-08-07T02:27:09;11.70;99.90
68051;DHT22;54839;51.364;7.246;2023-08-07T02:29:35;11.80;99.90
68051;DHT22;54839;51.364;7.246;2023-08-07T02:32:02;11.80;99.90
68051;DHT22;54839;51.364;7.246;2023-08-07T02:34:28;11.80;99.90
68051;DHT22;54839;51.364;7.246;2023-08-07T02:36:54;11.80;99.90
68051;DHT22;54839;51.364;7.246;2023-08-07T02:39:20;11.80;99.90
68051;DHT22;54839;51.364;7.246;2023-08-07T02:41:45;11.80;99.90
68051;DHT22;54839;51.364;7.246;2023-08-07T02:44:11;11.80;99.90
68051;DHT22;54839;51.364;7.246;2023-08-07T02:46:36;11.80;99.90
68051;DHT22;54839;51.364;7.246;2023-08-07T02:49:02;11.80;99.90
68051;DHT22;54839;51.364;7.246;2023-08-07T02:51:27;11.80;99.90
68051;DHT22;54839;51.364;7.246;2023-08-07T02:53:53;11.70;99.90
68051;DHT22;54839;51.364;7.246;2023-08-07T02:56:19;11.80;99.90
68051;DHT22;54839;51.364;7.246;2023-08-07T02:58:44;11.80;99.90
68051;DHT22;54839;51.364;7.246;2023-08-07T03:01:10;11.80;99.90
68051;DHT22;54839;51.364;7.246;2023-08-07T03:03:37;11.80;99.90
68051;DHT22;54839;51.364;7.246;2023-08-07T03:06:03;11.80;99.90
68051;DHT22;54839;51.364;7.246;2023-08-07T03:08:29;11.70;99.90
68051;DHT22;54839;51.364;7.246;2023-08-07T03:10:56;11.80;99.90
68051;DHT22;54839;51.364;7.246;2023-08-07T03:13:23;11.80;99.90
68051;DHT22;54839;51.364;7.246;2023-08-07T03:15:49;11.80;99.90
68051;DHT22;54839;51.364;7.246;2023-08-07T03:18:16;11.80;99.90
68051;DHT22;54839;51.364;7.246;2023-08-07T03:20:42;11.80;99.90
68051;DHT22;54839;51.364;7.246;2023-08-07T03:23:11;11.80;99.90
68051;DHT22;54839;51.364;7.246;2023-08-07T03:25:37;11.80;99.90
68051;DHT22;54839;51.364;7.246;2023-08-07T03:28:03;11.80;99.90
68051;DHT22;54839;51.364;7.246;2023-08-07T03:30:29;11.80;99.90
68051;DHT22;54839;51.364;7.246;2023-08-07T03:32:54;11.80;99.90
68051;DHT22;54839;51.364;7.246;2023-08-07T03:35:20;11.80;99.90
68051;DHT22;54839;51.364;7.246;2023-08-07T03:37:45;11.80;99.90
68051;DHT22;54839;51.364;7.246;2023-08-07T03:40:11;11.70;99.90
68051;DHT22;54839;51.364;7.246;2023-08-07T03:42:36;11.80;99.90
68051;DHT22;54839;51.364;7.246;2023-08-07T03:45:02;11.80;99.90
68051;DHT22;54839;51.364;7.246;2023-08-07T03:47:28;11.80;99.90
68051;DHT22;54839;51.364;7.246;2023-08-07T03:49:53;11.80;99.90
68051;DHT22;54839;51.364;7.246;2023-08-07T03:52:19;11.80;99.90
68051;DHT22;54839;51.364;7.246;2023-08-07T03:54:45;11.80;99.90
68051;DHT22;54839;51.364;7.246;2023-08-07T03:57:10;11.80;99.90
68051;DHT22;54839;51.364;7.246;2023-08-07T03:59:37;11.80;99.90
68051;DHT22;54839;51.364;7.246;2023-08-07T04:02:03;11.70;99.90
68051;DHT22;54839;51.364;7.246;2023-08-07T04:04:28;11.70;99.90
68051;DHT22;54839;51.364;7.246;2023-08-07T04:06:54;11.60;99.90
68051;DHT22;54839;51.364;7.246;2023-08-07T04:09:19;11.70;99.90
68051;DHT22;54839;51.364;7.246;2023-08-07T04:11:45;11.70;99.90
68051;DHT22;54839;51.364;7.246;2023-08-07T04:14:10;11.70;99.90
68051;DHT22;54839;51.364;7.246;2023-08-07T04:16:36;11.70;99.90
68051;DHT22;54839;51.364;7.246;2023-08-07T04:19:02;11.70;99.90
68051;DHT22;54839;51.364;7.246;2023-08-07T04:21:29;11.70;99.90
68051;DHT22;54839;51.364;7.246;2023-08-07T04:23:55;11.80;99.90
68051;DHT22;54839;51.364;7.246;2023-08-07T04:26:20;11.80;99.90
68051;DHT22;54839;51.364;7.246;2023-08-07T04:28:46;11.70;99.90
68051;DHT22;54839;51.364;7.246;2023-08-07T04:31:11;11.80;99.90
68051;DHT22;54839;51.364;7.246;2023-08-07T04:33:38;11.70;99.90
68051;DHT22;54839;51.364;7.246;2023-08-07T04:36:04;11.70;99.90
68051;DHT22;54839;51.364;7.246;2023-08-07T04:38:29;11.80;99.90
68051;DHT22;54839;51.364;7.246;2023-08-07T04:40:55;11.80;99.90
68051;DHT22;54839;51.364;7.246;2023-08-07T04:43:20;11.70;99.90
68051;DHT22;54839;51.364;7.246;2023-08-07T04:45:46;11.80;99.90
68051;DHT22;54839;51.364;7.246;2023-08-07T04:48:12;11.70;99.90
68051;DHT22;54839;51.364;7.246;2023-08-07T04:50:38;11.80;99.90
68051;DHT22;54839;51.364;7.246;2023-08-07T04:53:04;11.80;99.90
68051;DHT22;54839;51.364;7.246;2023-08-07T04:55:31;11.70;99.90
68051;DHT22;54839;51.364;7.246;2023-08-07T04:57:57;11.70;99.90
68051;DHT22;54839;51.364;7.246;2023-08-07T05:00:23;11.70;99.90
68051;DHT22;54839;51.364;7.246;2023-08-07T05:02:48;11.70;99.90
68051;DHT22;54839;51.364;7.246;2023-08-07T05:05:15;11.70;99.90
68051;DHT22;54839;51.364;7.246;2023-08-07T05:07:41;11.70;99.90
68051;DHT22;54839;51.364;7.246;2023-08-07T05:10:08;11.80;99.90
68051;DHT22;54839;51.364;7.246;2023-08-07T05:12:34;11.80;99.90
68051;DHT22;54839;51.364;7.246;2023-08-07T05:14:59;11.80;99.90
68051;DHT22;54839;51.364;7.246;2023-08-07T05:17:25;11.80;99.90
68051;DHT22;54839;51.364;7.246;2023-08-07T05:19:50;11.70;99.90
68051;DHT22;54839;51.364;7.246;2023-08-07T05:22:16;11.80;99.90
68051;DHT22;54839;51.364;7.246;2023-08-07T05:24:41;11.80;99.90
68051;DHT22;54839;51.364;7.246;2023-08-07T05:27:09;11.80;99.90
68051;DHT22;54839;51.364;7.246;2023-08-07T05:29:35;11.80;99.90
68051;DHT22;54839;51.364;7.246;2023-08-07T05:32:08;11.70;99.90
68051;DHT22;54839;51.364;7.246;2023-08-07T05:34:34;11.70;99.90
68051;DHT22;54839;51.364;7.246;2023-08-07T05:36:59;11.80;99.90
68051;DHT22;54839;51.364;7.246;2023-08-07T05:39:25;11.70;99.90
68051;DHT22;54839;51.364;7.246;2023-08-07T05:41:50;11.60;99.90
68051;DHT22;54839;51.364;7.246;2023-08-07T05:44:19;11.70;99.90
68051;DHT22;54839;51.364;7.246;2023-08-07T05:46:44;11.70;99.90
68051;DHT22;54839;51.364;7.246;2023-08-07T05:49:10;11.70;99.90
68051;DHT22;54839;51.364;7.246;2023-08-07T05:51:35;11.70;99.90
68051;DHT22;54839;51.364;7.246;2023-08-07T05:54:01;11.70;99.90
68051;DHT22;54839;51.364;7.246;2023-08-07T05:56:26;11.70;99.90
68051;DHT22;54839;51.364;7.246;2023-08-07T05:58:52;11.60;99.90
68051;DHT22;54839;51.364;7.246;2023-08-07T06:01:18;11.70;99.90
68051;DHT22;54839;51.364;7.246;2023-08-07T06:03:43;11.70;99.90
68051;DHT22;54839;51.364;7.246;2023-08-07T06:06:09;11.70;99.90
68051;DHT22;54839;51.364;7.246;2023-08-07T06:08:35;11.70;99.90
68051;DHT22;54839;51.364;7.246;2023-08-07T06:11:00;11.70;99.90
68051;DHT22;54839;51.364;7.246;2023-08-07T06:13:30;11.80;99.90
68051;DHT22;54839;51.364;7.246;2023-08-07T06:15:56;11.70;99.90
68051;DHT22;54839;51.364;7.246;2023-08-07T06:18:22;11.80;99.90
68051;DHT22;54839;51.364;7.246;2023-08-07T06:20:47;11.80;99.90
68051;DHT22;54839;51.364;7.246;2023-08-07T06:23:13;11.80;99.90
68051;DHT22;54839;51.364;7.246;2023-08-07T06:25:38;11.70;99.90
68051;DHT22;54839;51.364;7.246;2023-08-07T06:28:04;11.80;99.90
68051;DHT22;54839;51.364;7.246;2023-08-07T06:30:31;11.80;99.90
68051;DHT22;54839;51.364;7.246;2023-08-07T06:32:57;11.80;99.90
68051;DHT22;54839;51.364;7.246;2023-08-07T06:35:22;11.80;99.90
68051;DHT22;54839;51.364;7.246;2023-08-07T06:37:48;11.70;99.90
68051;DHT22;54839;51.364;7.246;2023-08-07T06:40:14;11.80;99.90
68051;DHT22;54839;51.364;7.246;2023-08-07T06:42:39;11.80;99.90
68051;DHT22;54839;51.364;7.246;2023-08-07T06:45:05;11.90;99.90
68051;DHT22;54839;51.364;7.246;2023-08-07T06:47:32;11.80;99.90
68051;DHT22;54839;51.364;7.246;2023-08-07T06:49:57;11.90;99.90
68051;DHT22;54839;51.364;7.246;2023-08-07T06:52:23;11.90;99.90
68051;DHT22;54839;51.364;7.246;2023-08-07T06:54:48;11.90;99.90
68051;DHT22;54839;51.364;7.246;2023-08-07T06:57:15;12.00;99.90
68051;DHT22;54839;51.364;7.246;2023-08-07T06:59:40;11.90;99.90
68051;DHT22;54839;51.364;7.246;2023-08-07T07:02:06;12.10;99.90
68051;DHT22;54839;51.364;7.246;2023-08-07T07:04:31;12.00;99.90
68051;DHT22;54839;51.364;7.246;2023-08-07T07:06:58;12.10;99.90
68051;DHT22;54839;51.364;7.246;2023-08-07T07:09:24;12.00;99.90
68051;DHT22;54839;51.364;7.246;2023-08-07T07:11:50;12.00;99.90
68051;DHT22;54839;51.364;7.246;2023-08-07T07:14:15;12.30;99.90
68051;DHT22;54839;51.364;7.246;2023-08-07T07:16:41;12.20;99.90
68051;DHT22;54839;51.364;7.246;2023-08-07T07:19:07;12.20;99.90
68051;DHT22;54839;51.364;7.246;2023-08-07T07:21:34;12.20;99.90
68051;DHT22;54839;51.364;7.246;2023-08-07T07:24:03;12.10;99.90
68051;DHT22;54839;51.364;7.246;2023-08-07T07:26:30;12.10;99.90
68051;DHT22;54839;51.364;7.246;2023-08-07T07:28:56;12.20;99.90
68051;DHT22;54839;51.364;7.246;2023-08-07T07:31:21;12.20;99.90
68051;DHT22;54839;51.364;7.246;2023-08-07T07:33:47;12.20;99.90
68051;DHT22;54839;51.364;7.246;2023-08-07T07:36:18;12.20;99.90
68051;DHT22;54839;51.364;7.246;2023-08-07T07:38:47;12.20;99.90
68051;DHT22;54839;51.364;7.246;2023-08-07T07:41:14;12.20;99.90
68051;DHT22;54839;51.364;7.246;2023-08-07T07:43:40;12.20;99.90
68051;DHT22;54839;51.364;7.246;2023-08-07T07:46:06;12.30;99.90
68051;DHT22;54839;51.364;7.246;2023-08-07T07:48:32;12.30;99.90
68051;DHT22;54839;51.364;7.246;2023-08-07T07:50:59;12.20;99.90
68051;DHT22;54839;51.364;7.246;2023-08-07T07:53:25;12.20;99.90
68051;DHT22;54839;51.364;7.246;2023-08-07T07:55:50;12.30;99.90
68051;DHT22;54839;51.364;7.246;2023-08-07T07:58:16;12.20;99.90
68051;DHT22;54839;51.364;7.246;2023-08-07T08:00:42;12.30;99.90
68051;DHT22;54839;51.364;7.246;2023-08-07T08:03:07;12.30;99.90
68051;DHT22;54839;51.364;7.246;2023-08-07T08:05:34;12.20;99.90
68051;DHT22;54839;51.364;7.246;2023-08-07T08:08:00;12.30;99.90
68051;DHT22;54839;51.364;7.246;2023-08-07T08:10:27;12.30;99.90
68051;DHT22;54839;51.364;7.246;2023-08-07T08:12:55;12.20;99.90
68051;DHT22;54839;51.364;7.246;2023-08-07T08:15:20;12.30;99.90
68051;DHT22;54839;51.364;7.246;2023-08-07T08:17:47;12.30;99.90
68051;DHT22;54839;51.364;7.246;2023-08-07T08:20:12;12.30;99.90
68051;DHT22;54839;51.364;7.246;2023-08-07T08:22:42;12.40;99.90
68051;DHT22;54839;51.364;7.246;2023-08-07T08:25:08;12.20;99.90
68051;DHT22;54839;51.364;7.246;2023-08-07T08:27:34;12.30;99.90
68051;DHT22;54839;51.364;7.246;2023-08-07T08:30:01;12.40;99.90
68051;DHT22;54839;51.364;7.246;2023-08-07T08:32:26;12.30;99.90
68051;DHT22;54839;51.364;7.246;2023-08-07T08:34:52;12.30;99.90
68051;DHT22;54839;51.364;7.246;2023-08-07T08:37:17;12.40;99.90
68051;DHT22;54839;51.364;7.246;2023-08-07T08:39:43;12.50;99.90
68051;DHT22;54839;51.364;7.246;2023-08-07T08:42:11;12.70;99.90
68051;DHT22;54839;51.364;7.246;2023-08-07T08:44:39;12.70;99.90
68051;DHT22;54839;51.364;7.246;2023-08-07T08:47:08;12.70;99.90
68051;DHT22;54839;51.364;7.246;2023-08-07T08:49:49;12.70;99.90
68051;DHT22;54839;51.364;7.246;2023-08-07T08:52:16;12.70;99.90
68051;DHT22;54839;51.364;7.246;2023-08-07T08:54:44;12.70;99.90
68051;DHT22;54839;51.364;7.246;2023-08-07T08:57:11;12.80;99.90
68051;DHT22;54839;51.364;7.246;2023-08-07T08:59:37;12.70;99.90
68051;DHT22;54839;51.364;7.246;2023-08-07T09:02:04;12.80;99.90
68051;DHT22;54839;51.364;7.246;2023-08-07T09:04:29;12.80;99.90
68051;DHT22;54839;51.364;7.246;2023-08-07T09:06:55;12.90;99.90
68051;DHT22;54839;51.364;7.246;2023-08-07T09:09:21;13.20;99.90
68051;DHT22;54839;51.364;7.246;2023-08-07T09:11:48;13.40;99.90
68051;DHT22;54839;51.364;7.246;2023-08-07T09:14:22;13.60;99.90
68051;DHT22;54839;51.364;7.246;2023-08-07T09:16:50;13.70;99.90
68051;DHT22;54839;51.364;7.246;2023-08-07T09:19:15;13.80;99.90
68051;DHT22;54839;51.364;7.246;2023-08-07T09:21:41;14.00;99.90
68051;DHT22;54839;51.364;7.246;2023-08-07T09:24:06;14.00;99.90
68051;DHT22;54839;51.364;7.246;2023-08-07T09:26:33;13.80;99.90
68051;DHT22;54839;51.364;7.246;2023-08-07T09:29:02;13.80;99.90
68051;DHT22;54839;51.364;7.246;2023-08-07T09:31:28;13.90;99.90
68051;DHT22;54839;51.364;7.246;2023-08-07T09:34:04;14.20;99.90
68051;DHT22;54839;51.364;7.246;2023-08-07T09:36:34;14.60;99.90
68051;DHT22;54839;51.364;7.246;2023-08-07T09:39:03;15.00;99.90
68051;DHT22;54839;51.364;7.246;2023-08-07T09:41:32;15.30;99.90
68051;DHT22;54839;51.364;7.246;2023-08-07T09:44:06;15.30;99.90
68051;DHT22;54839;51.364;7.246;2023-08-07T09:46:41;14.80;99.90
68051;DHT22;54839;51.364;7.246;2023-08-07T09:49:06;14.80;99.90
68051;DHT22;54839;51.364;7.246;2023-08-07T09:51:46;14.80;99.90
68051;DHT22;54839;51.364;7.246;2023-08-07T09:54:12;15.30;99.90
68051;DHT22;54839;51.364;7.246;2023-08-07T09:56:41;15.30;99.90
68051;DHT22;54839;51.364;7.246;2023-08-07T09:59:07;15.20;99.90
68051;DHT22;54839;51.364;7.246;2023-08-07T10:01:36;14.70;99.90
68051;DHT22;54839;51.364;7.246;2023-08-07T10:04:05;14.30;99.90
68051;DHT22;54839;51.364;7.246;2023-08-07T10:06:30;14.00;99.90
68051;DHT22;54839;51.364;7.246;2023-08-07T10:08:56;14.00;99.90
68051;DHT22;54839;51.364;7.246;2023-08-07T10:11:23;13.90;99.90
68051;DHT22;54839;51.364;7.246;2023-08-07T10:13:49;13.60;99.90
68051;DHT22;54839;51.364;7.246;2023-08-07T10:16:15;13.70;99.90
68051;DHT22;54839;51.364;7.246;2023-08-07T10:18:41;13.90;99.90
68051;DHT22;54839;51.364;7.246;2023-08-07T10:21:06;13.90;99.90
68051;DHT22;54839;51.364;7.246;2023-08-07T10:23:35;14.00;99.90
68051;DHT22;54839;51.364;7.246;2023-08-07T10:26:04;14.20;99.90
68051;DHT22;54839;51.364;7.246;2023-08-07T10:28:33;14.60;99.90
68051;DHT22;54839;51.364;7.246;2023-08-07T10:31:03;14.60;99.90
68051;DHT22;54839;51.364;7.246;2023-08-07T10:33:30;14.90;99.90
68051;DHT22;54839;51.364;7.246;2023-08-07T10:35:57;15.00;99.90
68051;DHT22;54839;51.364;7.246;2023-08-07T10:38:25;15.30;99.90
68051;DHT22;54839;51.364;7.246;2023-08-07T10:43:37;15.70;99.90
68051;DHT22;54839;51.364;7.246;2023-08-07T10:46:15;15.40;99.90
68051;DHT22;54839;51.364;7.246;2023-08-07T10:48:53;15.40;99.90
68051;DHT22;54839;51.364;7.246;2023-08-07T10:51:19;15.30;99.90
68051;DHT22;54839;51.364;7.246;2023-08-07T10:53:48;16.00;99.90
68051;DHT22;54839;51.364;7.246;2023-08-07T10:56:30;16.10;99.90
68051;DHT22;54839;51.364;7.246;2023-08-07T10:58:56;16.10;99.90
68051;DHT22;54839;51.364;7.246;2023-08-07T11:03:57;15.20;99.90
68051;DHT22;54839;51.364;7.246;2023-08-07T11:06:29;14.80;99.90
68051;DHT22;54839;51.364;7.246;2023-08-07T11:08:59;14.50;99.90
68051;DHT22;54839;51.364;7.246;2023-08-07T11:11:24;14.30;99.90
68051;DHT22;54839;51.364;7.246;2023-08-07T11:13:51;14.30;99.90
68051;DHT22;54839;51.364;7.246;2023-08-07T11:16:17;14.20;99.90
68051;DHT22;54839;51.364;7.246;2023-08-07T11:18:47;14.40;99.90
68051;DHT22;54839;51.364;7.246;2023-08-07T11:21:13;14.10;99.90
68051;DHT22;54839;51.364;7.246;2023-08-07T11:23:39;14.20;99.90
68051;DHT22;54839;51.364;7.246;2023-08-07T11:26:06;14.50;99.90
68051;DHT22;54839;51.364;7.246;2023-08-07T11:28:32;14.60;99.90
68051;DHT22;54839;51.364;7.246;2023-08-07T11:30:57;14.80;99.90
68051;DHT22;54839;51.364;7.246;2023-08-07T11:33:24;14.90;99.90
68051;DHT22;54839;51.364;7.246;2023-08-07T11:35:51;14.90;99.90
68051;DHT22;54839;51.364;7.246;2023-08-07T11:38:32;15.00;99.90
68051;DHT22;54839;51.364;7.246;2023-08-07T11:41:00;15.20;99.90
68051;DHT22;54839;51.364;7.246;2023-08-07T11:43:30;15.40;99.90
68051;DHT22;54839;51.364;7.246;2023-08-07T11:45:57;15.30;99.90
68051;DHT22;54839;51.364;7.246;2023-08-07T11:48:26;15.50;99.90
68051;DHT22;54839;51.364;7.246;2023-08-07T11:50:53;16.00;99.90
68051;DHT22;54839;51.364;7.246;2023-08-07T11:53:21;16.30;99.90
68051;DHT22;54839;51.364;7.246;2023-08-07T11:56:01;16.90;99.90
68051;DHT22;54839;51.364;7.246;2023-08-07T12:01:06;17.00;99.90
68051;DHT22;54839;51.364;7.246;2023-08-07T12:03:36;16.10;99.90
68051;DHT22;54839;51.364;7.246;2023-08-07T12:06:05;16.00;99.90
68051;DHT22;54839;51.364;7.246;2023-08-07T12:08:41;15.90;99.90
68051;DHT22;54839;51.364;7.246;2023-08-07T12:11:09;15.90;99.90
68051;DHT22;54839;51.364;7.246;2023-08-07T12:13:43;16.00;99.90
68051;DHT22;54839;51.364;7.246;2023-08-07T12:16:10;16.10;99.90
68051;DHT22;54839;51.364;7.246;2023-08-07T12:18:50;16.40;99.90
68051;DHT22;54839;51.364;7.246;2023-08-07T12:21:22;16.10;99.90
68051;DHT22;54839;51.364;7.246;2023-08-07T12:23:50;16.10;99.90
68051;DHT22;54839;51.364;7.246;2023-08-07T12:26:16;16.20;99.90
68051;DHT22;54839;51.364;7.246;2023-08-07T12:28:43;16.30;99.90
68051;DHT22;54839;51.364;7.246;2023-08-07T12:31:08;16.60;99.90
68051;DHT22;54839;51.364;7.246;2023-08-07T12:33:34;17.10;99.90
68051;DHT22;54839;51.364;7.246;2023-08-07T12:36:00;17.70;99.90
68051;DHT22;54839;51.364;7.246;2023-08-07T12:38:27;18.00;99.90
68051;DHT22;54839;51.364;7.246;2023-08-07T12:40:53;18.50;99.90
68051;DHT22;54839;51.364;7.246;2023-08-07T12:43:19;18.10;99.90
68051;DHT22;54839;51.364;7.246;2023-08-07T12:45:45;17.80;99.90
68051;DHT22;54839;51.364;7.246;2023-08-07T12:48:10;18.00;99.90
68051;DHT22;54839;51.364;7.246;2023-08-07T12:50:36;19.50;99.90
68051;DHT22;54839;51.364;7.246;2023-08-07T12:53:02;19.40;99.90
68051;DHT22;54839;51.364;7.246;2023-08-07T12:55:28;20.30;99.90
68051;DHT22;54839;51.364;7.246;2023-08-07T12:57:55;20.50;99.90
68051;DHT22;54839;51.364;7.246;2023-08-07T13:00:21;20.10;99.90
68051;DHT22;54839;51.364;7.246;2023-08-07T13:02:48;19.60;99.90
68051;DHT22;54839;51.364;7.246;2023-08-07T13:05:15;19.60;99.90
68051;DHT22;54839;51.364;7.246;2023-08-07T13:07:42;19.00;99.90
68051;DHT22;54839;51.364;7.246;2023-08-07T13:10:10;18.60;99.90
68051;DHT22;54839;51.364;7.246;2023-08-07T13:12:37;18.60;99.90
68051;DHT22;54839;51.364;7.246;2023-08-07T13:15:04;19.40;99.90
68051;DHT22;54839;51.364;7.246;2023-08-07T13:17:30;19.40;99.90
68051;DHT22;54839;51.364;7.246;2023-08-07T13:19:57;19.10;99.90
68051;DHT22;54839;51.364;7.246;2023-08-07T13:22:22;18.40;99.90
68051;DHT22;54839;51.364;7.246;2023-08-07T13:24:48;18.50;99.90
68051;DHT22;54839;51.364;7.246;2023-08-07T13:27:13;18.50;99.90
68051;DHT22;54839;51.364;7.246;2023-08-07T13:29:39;18.20;99.90
68051;DHT22;54839;51.364;7.246;2023-08-07T13:32:06;18.10;99.90
68051;DHT22;54839;51.364;7.246;2023-08-07T13:34:35;18.50;99.90
68051;DHT22;54839;51.364;7.246;2023-08-07T13:37:02;19.00;99.90
68051;DHT22;54839;51.364;7.246;2023-08-07T13:39:28;22.20;99.90
68051;DHT22;54839;51.364;7.246;2023-08-07T13:41:53;24.40;99.90
68051;DHT22;54839;51.364;7.246;2023-08-07T13:44:19;25.90;99.90
68051;DHT22;54839;51.364;7.246;2023-08-07T13:46:45;27.80;99.90
68051;DHT22;54839;51.364;7.246;2023-08-07T13:49:13;28.00;99.90
68051;DHT22;54839;51.364;7.246;2023-08-07T13:51:38;28.50;99.90
68051;DHT22;54839;51.364;7.246;2023-08-07T13:54:04;27.10;99.90
68051;DHT22;54839;51.364;7.246;2023-08-07T13:56:30;28.60;99.90
68051;DHT22;54839;51.364;7.246;2023-08-07T13:58:55;30.30;95.70
68051;DHT22;54839;51.364;7.246;2023-08-07T14:01:21;25.10;95.50
68051;DHT22;54839;51.364;7.246;2023-08-07T14:03:47;22.70;99.90
68051;DHT22;54839;51.364;7.246;2023-08-07T14:06:12;22.50;99.90
68051;DHT22;54839;51.364;7.246;2023-08-07T14:08:38;25.70;98.00
68051;DHT22;54839;51.364;7.246;2023-08-07T14:11:03;23.80;99.90
68051;DHT22;54839;51.364;7.246;2023-08-07T14:13:30;22.50;99.90
68051;DHT22;54839;51.364;7.246;2023-08-07T14:15:55;22.80;99.90
68051;DHT22;54839;51.364;7.246;2023-08-07T14:18:21;24.50;99.90
68051;DHT22;54839;51.364;7.246;2023-08-07T14:20:47;23.50;99.90
68051;DHT22;54839;51.364;7.246;2023-08-07T14:23:12;22.40;99.90
68051;DHT22;54839;51.364;7.246;2023-08-07T14:25:38;21.00;99.90
68051;DHT22;54839;51.364;7.246;2023-08-07T14:28:04;20.40;99.90
68051;DHT22;54839;51.364;7.246;2023-08-07T14:30:29;20.80;99.90
68051;DHT22;54839;51.364;7.246;2023-08-07T14:32:55;24.00;99.90
68051;DHT22;54839;51.364;7.246;2023-08-07T14:35:21;24.90;99.90
68051;DHT22;54839;51.364;7.246;2023-08-07T14:37:46;24.20;99.90
68051;DHT22;54839;51.364;7.246;2023-08-07T14:40:13;22.90;99.90
68051;DHT22;54839;51.364;7.246;2023-08-07T14:42:39;24.70;99.90
68051;DHT22;54839;51.364;7.246;2023-08-07T14:45:05;23.50;99.40
68051;DHT22;54839;51.364;7.246;2023-08-07T14:47:31;22.00;99.90
68051;DHT22;54839;51.364;7.246;2023-08-07T14:49:57;21.20;99.90
68051;DHT22;54839;51.364;7.246;2023-08-07T14:52:22;21.20;99.90
68051;DHT22;54839;51.364;7.246;2023-08-07T14:54:48;21.60;99.90
68051;DHT22;54839;51.364;7.246;2023-08-07T14:57:14;24.20;99.70
68051;DHT22;54839;51.364;7.246;2023-08-07T14:59:39;26.70;96.30
68051;DHT22;54839;51.364;7.246;2023-08-07T15:02:05;27.90;93.90
68051;DHT22;54839;51.364;7.246;2023-08-07T15:04:31;28.00;92.70
68051;DHT22;54839;51.364;7.246;2023-08-07T15:06:57;29.40;90.00
68051;DHT22;54839;51.364;7.246;2023-08-07T15:09:23;28.10;83.30
68051;DHT22;54839;51.364;7.246;2023-08-07T15:11:49;26.60;84.10
68051;DHT22;54839;51.364;7.246;2023-08-07T15:14:15;25.60;85.30
68051;DHT22;54839;51.364;7.246;2023-08-07T15:16:41;25.50;83.40
68051;DHT22;54839;51.364;7.246;2023-08-07T15:19:07;23.80;86.00
68051;DHT22;54839;51.364;7.246;2023-08-07T15:21:33;22.90;89.40
68051;DHT22;54839;51.364;7.246;2023-08-07T15:23:58;23.70;87.60
68051;DHT22;54839;51.364;7.246;2023-08-07T15:26:24;23.10;89.10
68051;DHT22;54839;51.364;7.246;2023-08-07T15:28:49;23.30;90.70
68051;DHT22;54839;51.364;7.246;2023-08-07T15:31:15;22.80;90.40
68051;DHT22;54839;51.364;7.246;2023-08-07T15:33:41;22.60;90.40
68051;DHT22;54839;51.364;7.246;2023-08-07T15:36:09;22.90;90.20
68051;DHT22;54839;51.364;7.246;2023-08-07T15:38:35;22.90;88.20